Kezdőlap
METAR-TAF:

METAR-TAF

Repülőterek :

MH 86. Szolnok Helikopter Bázis

Szolnok, Magyarország

földrajzi szélesség: 47-07N, földrajzi hosszúság: 020-14E, magasság: 89 m

Jelenlegi meteorológiai megfigyelések

A jelentés 15 perccel ezelõtt készült, 21:15 UTC
Szélcsend
Hőmérséklet 18°C
Páratartalom 88%
Légköri nyomás 1020 hPa
Látótávolság 10 km, vagy több
felhőtlen 1500 m magasságban, és nincs gomolyfelhõ

METAR: LHSN 272115Z 00000KT CAVOK 18/16 Q1020 NOSIG RMK BLU

Idő: 23:30 (21:30 UTC)


TAF: hiányzik

Meteorológiai megfigyelések és előrejelzések több, mint 4000 repülőtéren (METAR és TAF jelentéseket).

A térképen piros és sárga pontok jelzik az elérhető meteorológiai állomásokat.

Mozgassa az egeret a pont fölött, hogy megjelenjen az állomás neve.

Azután kattintson az időjárási megfigyelések és előrejelzések megtekintéséhez.

A térkép megváltoztatása: kattintson a fekete keresztel jelölt zöld gombra ráközelítéshez, a vonallal jelölt zöld gombra távolításhoz, vagy a zöld nyilakra a szomszédos térképek eléréséhez.


METAR-TAF: